Time;durP1;ratioP1;P1;durP2;ratioP2;P2;SDS_P1;SDS_P2;PMS_P1;PMS_P2;Temp;Humidity;BMP_temperature;BMP_pressure;BME280_temperature;BME280_humidity;BME280_pressure;Samples;Min_cycle;Max_cycle;Signal;HPM_P1;HPM_P2
2022/05/20 00:00:17;;;;;;;7.23;6.63;;;;;;;;;;5048826;28;20210;-56
2022/05/20 00:02:44;;;;;;;7.50;6.87;;;;;;;;;;5034261;28;20167;-56
2022/05/20 00:05:10;;;;;;;7.80;7.10;;;;;;;;;;5030227;28;20746;-56
2022/05/20 00:07:36;;;;;;;7.77;6.87;;;;;;;;;;5049875;28;20171;-56
2022/05/20 00:10:03;;;;;;;8.03;7.23;;;;;;;;;;5060030;28;20186;-56
2022/05/20 00:12:29;;;;;;;8.73;8.03;;;;;;;;;;5047357;28;20647;-56
2022/05/20 00:14:55;;;;;;;8.17;7.33;;;;;;;;;;5051434;28;20183;-56
2022/05/20 00:17:21;;;;;;;7.87;7.17;;;;;;;;;;5046043;28;20596;-56
2022/05/20 00:19:48;;;;;;;8.80;7.90;;;;;;;;;;5060613;28;20191;-56
2022/05/20 00:22:14;;;;;;;8.40;7.60;;;;;;;;;;5057129;28;20185;-55
2022/05/20 00:25:45;;;;;;;7.23;6.63;;;;;;;;;;5052873;28;20186;-56
2022/05/20 00:27:26;;;;;;;7.23;6.63;;;;;;;;;;5062342;28;20230;-56
2022/05/20 00:29:52;;;;;;;7.33;6.73;;;;;;;;;;5051486;28;20185;-55
2022/05/20 00:32:18;;;;;;;8.33;7.63;;;;;;;;;;5031914;28;20229;-56
2022/05/20 00:34:44;;;;;;;8.50;7.57;;;;;;;;;;5054972;28;20185;-56
2022/05/20 00:37:10;;;;;;;8.20;7.43;;;;;;;;;;5031162;28;20284;-56
2022/05/20 00:39:36;;;;;;;8.40;7.80;;;;;;;;;;5051060;28;20190;-56
2022/05/20 00:42:16;;;;;;;8.37;7.67;;;;;;;;;;5040088;28;20651;-56
2022/05/20 00:44:43;;;;;;;7.33;6.83;;;;;;;;;;5055650;28;20892;-55
2022/05/20 00:47:11;;;;;;;7.33;6.70;;;;;;;;;;5059610;28;20515;-55
2022/05/20 00:49:38;;;;;;;7.37;6.77;;;;;;;;;;5046571;28;20552;-56
2022/05/20 00:52:05;;;;;;;7.83;7.10;;;;;;;;;;5048535;28;20607;-55
2022/05/20 00:54:34;;;;;;;6.83;6.27;;;;;;;;;;5059898;28;20215;-56
2022/05/20 00:57:05;;;;;;;8.53;7.83;;;;;;;;;;5052101;28;20220;-56
2022/05/20 00:59:32;;;;;;;7.83;7.23;;;;;;;;;;5051600;28;21044;-55
2022/05/20 01:02:01;;;;;;;8.27;7.47;;;;;;;;;;5061319;28;20193;-55
2022/05/20 01:04:29;;;;;;;7.33;6.63;;;;;;;;;;5030202;28;20178;-56
2022/05/20 01:06:55;;;;;;;8.00;7.20;;;;;;;;;;5050181;28;20230;-56
2022/05/20 01:09:21;;;;;;;7.33;6.73;;;;;;;;;;5040389;28;20191;-56
2022/05/20 01:11:48;;;;;;;7.37;6.87;;;;;;;;;;5056694;28;20191;-56
2022/05/20 01:14:21;;;;;;;10.67;7.63;;;;;;;;;;5055195;28;20184;-55
2022/05/20 01:16:47;;;;;;;7.80;7.10;;;;;;;;;;5064751;28;20567;-55
2022/05/20 01:19:23;;;;;;;7.80;7.13;;;;;;;;;;5052592;28;20182;-55
2022/05/20 01:21:49;;;;;;;7.27;6.57;;;;;;;;;;5047720;28;20171;-56
2022/05/20 01:24:15;;;;;;;7.53;6.83;;;;;;;;;;5034155;28;20177;-55
2022/05/20 01:26:44;;;;;;;7.57;6.93;;;;;;;;;;5047935;28;20739;-56
2022/05/20 01:29:10;;;;;;;7.83;7.13;;;;;;;;;;5048717;28;20264;-55
2022/05/20 01:31:37;;;;;;;7.80;7.10;;;;;;;;;;5051889;28;20607;-56
2022/05/20 01:34:03;;;;;;;7.30;6.70;;;;;;;;;;5037547;28;20188;-55
2022/05/20 01:36:29;;;;;;;7.63;6.93;;;;;;;;;;5051784;28;20209;-56
2022/05/20 01:38:57;;;;;;;8.43;7.63;;;;;;;;;;5032837;28;20228;-55
2022/05/20 01:41:32;;;;;;;7.40;6.80;;;;;;;;;;5048222;28;20201;-55
2022/05/20 01:44:17;;;;;;;7.97;7.30;;;;;;;;;;5038041;28;20518;-55
2022/05/20 01:46:52;;;;;;;7.70;7.10;;;;;;;;;;5057786;28;20220;-55
2022/05/20 01:49:34;;;;;;;7.87;7.10;;;;;;;;;;5033372;28;20189;-55
2022/05/20 01:52:04;;;;;;;7.43;6.83;;;;;;;;;;5037133;28;20179;-56
2022/05/20 01:54:36;;;;;;;8.57;7.00;;;;;;;;;;5054507;28;20186;-56
2022/05/20 01:57:09;;;;;;;7.30;6.70;;;;;;;;;;5034676;28;21086;-56
2022/05/20 01:59:39;;;;;;;8.20;7.60;;;;;;;;;;5031564;28;20296;-56
2022/05/20 02:02:08;;;;;;;7.90;7.27;;;;;;;;;;5050267;28;20177;-56
2022/05/20 02:04:43;;;;;;;8.27;7.50;;;;;;;;;;5052880;28;20187;-56
2022/05/20 02:07:12;;;;;;;8.33;7.53;;;;;;;;;;5053489;28;20539;-58
2022/05/20 02:09:45;;;;;;;7.57;6.87;;;;;;;;;;5035003;28;20796;-56
2022/05/20 02:12:14;;;;;;;7.77;6.57;;;;;;;;;;5048481;28;20188;-56
2022/05/20 02:14:47;;;;;;;7.13;6.50;;;;;;;;;;5040333;28;20184;-56
2022/05/20 02:17:43;;;;;;;7.70;7.00;;;;;;;;;;5060928;28;20709;-56
2022/05/20 02:20:14;;;;;;;7.37;6.77;;;;;;;;;;5021619;28;20188;-56
2022/05/20 02:23:07;;;;;;;8.20;7.50;;;;;;;;;;5052328;28;20666;-56
2022/05/20 02:25:35;;;;;;;7.90;7.23;;;;;;;;;;5045951;28;20645;-55
2022/05/20 02:28:04;;;;;;;7.30;6.80;;;;;;;;;;5029735;28;20315;-55
2022/05/20 02:30:33;;;;;;;8.10;7.40;;;;;;;;;;5046189;28;20527;-55
2022/05/20 02:33:08;;;;;;;7.37;6.77;;;;;;;;;;5052614;28;20194;-55
2022/05/20 02:35:34;;;;;;;7.40;6.77;;;;;;;;;;5050772;28;20211;-56
2022/05/20 02:38:08;;;;;;;7.77;7.07;;;;;;;;;;5048335;28;20222;-56
2022/05/20 02:40:35;;;;;;;8.30;7.50;;;;;;;;;;5046158;28;21001;-56
2022/05/20 02:43:01;;;;;;;8.77;7.97;;;;;;;;;;5047606;28;20188;-55
2022/05/20 02:45:33;;;;;;;8.10;7.33;;;;;;;;;;5048740;28;20613;-56
2022/05/20 02:47:59;;;;;;;7.83;7.20;;;;;;;;;;5045985;28;20492;-56
2022/05/20 02:50:25;;;;;;;7.60;7.03;;;;;;;;;;5033393;28;20186;-56
2022/05/20 02:52:51;;;;;;;7.50;6.80;;;;;;;;;;5027424;28;20254;-56
2022/05/20 02:55:17;;;;;;;7.57;6.97;;;;;;;;;;5043268;28;20191;-56
2022/05/20 02:57:47;;;;;;;8.10;7.37;;;;;;;;;;5055644;28;20200;-55
2022/05/20 03:05:44;;;;;;;7.73;7.03;;;;;;;;;;5046432;28;20619;-55
2022/05/20 03:08:11;;;;;;;9.40;8.70;;;;;;;;;;5029212;28;20329;-55
2022/05/20 03:10:37;;;;;;;8.03;7.33;;;;;;;;;;5038759;28;20188;-56
2022/05/20 03:13:04;;;;;;;8.60;7.80;;;;;;;;;;5031653;28;20192;-55
2022/05/20 03:15:30;;;;;;;8.37;7.67;;;;;;;;;;5055721;28;20497;-55
2022/05/20 03:17:57;;;;;;;8.27;7.53;;;;;;;;;;5036220;28;20189;-55
2022/05/20 03:20:24;;;;;;;9.63;8.50;;;;;;;;;;5041207;28;20195;-55
2022/05/20 03:22:50;;;;;;;8.53;7.67;;;;;;;;;;5044500;28;20656;-55
2022/05/20 03:25:16;;;;;;;8.87;8.07;;;;;;;;;;5060409;28;20256;-55
2022/05/20 03:27:43;;;;;;;9.23;8.50;;;;;;;;;;5055265;28;20650;-55
2022/05/20 03:30:10;;;;;;;9.30;8.40;;;;;;;;;;5055234;28;20180;-55
2022/05/20 03:32:37;;;;;;;9.57;8.57;;;;;;;;;;5057730;28;20209;-55
2022/05/20 03:35:04;;;;;;;9.10;8.40;;;;;;;;;;5037907;28;20194;-55
2022/05/20 03:37:31;;;;;;;8.17;7.57;;;;;;;;;;5056956;28;20214;-55
2022/05/20 03:39:57;;;;;;;9.87;8.90;;;;;;;;;;5041454;28;20736;-55
2022/05/20 03:42:24;;;;;;;8.97;8.27;;;;;;;;;;5049092;28;20613;-56
2022/05/20 03:44:50;;;;;;;9.20;8.40;;;;;;;;;;5033395;28;20625;-56
2022/05/20 03:47:16;;;;;;;8.50;7.70;;;;;;;;;;5060217;28;20207;-56
2022/05/20 03:49:42;;;;;;;9.47;8.13;;;;;;;;;;5042349;28;20544;-57
2022/05/20 03:52:09;;;;;;;9.10;8.33;;;;;;;;;;5054132;28;20284;-56
2022/05/20 03:54:36;;;;;;;9.67;8.80;;;;;;;;;;5051790;28;20196;-57
2022/05/20 03:57:03;;;;;;;8.57;7.80;;;;;;;;;;5041451;28;20224;-57
2022/05/20 03:59:29;;;;;;;9.83;8.90;;;;;;;;;;5054492;28;20185;-56
2022/05/20 04:01:59;;;;;;;9.83;8.87;;;;;;;;;;5050736;28;20192;-56
2022/05/20 04:04:42;;;;;;;9.07;8.27;;;;;;;;;;5052423;28;20181;-56
2022/05/20 04:07:09;;;;;;;12.27;11.30;;;;;;;;;;5030026;28;20196;-56
2022/05/20 04:09:36;;;;;;;9.50;8.67;;;;;;;;;;5060406;28;20212;-56
2022/05/20 04:12:03;;;;;;;8.63;7.83;;;;;;;;;;5060344;28;20173;-56
2022/05/20 04:14:31;;;;;;;8.30;7.50;;;;;;;;;;5059849;28;20250;-56
2022/05/20 04:16:57;;;;;;;9.33;8.43;;;;;;;;;;5047250;28;20204;-56
2022/05/20 04:19:28;;;;;;;8.90;8.10;;;;;;;;;;5041101;28;20265;-56
2022/05/20 04:21:55;;;;;;;9.37;8.57;;;;;;;;;;5049631;28;20195;-56
2022/05/20 04:24:21;;;;;;;8.83;8.00;;;;;;;;;;5064910;28;20181;-56
2022/05/20 04:26:47;;;;;;;10.07;9.13;;;;;;;;;;5057898;28;20585;-56
2022/05/20 04:29:14;;;;;;;11.57;10.67;;;;;;;;;;5029964;28;20694;-56
2022/05/20 04:31:43;;;;;;;9.07;8.30;;;;;;;;;;5033654;28;20562;-56
2022/05/20 04:34:09;;;;;;;8.53;7.80;;;;;;;;;;5033514;28;20196;-56
2022/05/20 04:36:35;;;;;;;9.17;8.27;;;;;;;;;;5050818;28;20608;-56
2022/05/20 04:39:02;;;;;;;8.33;7.63;;;;;;;;;;5030266;28;20184;-57
2022/05/20 04:46:59;;;;;;;8.60;7.90;;;;;;;;;;5053705;28;20184;-56
2022/05/20 04:49:30;;;;;;;9.17;8.37;;;;;;;;;;5042205;28;20181;-56
2022/05/20 04:51:56;;;;;;;8.37;7.57;;;;;;;;;;5034993;28;20237;-56
2022/05/20 04:57:08;;;;;;;8.87;8.07;;;;;;;;;;5052835;28;20227;-56
2022/05/20 04:59:41;;;;;;;9.13;8.43;;;;;;;;;;5036783;28;20547;-58
2022/05/20 05:02:08;;;;;;;13.43;12.43;;;;;;;;;;5036802;28;20780;-56
2022/05/20 05:04:34;;;;;;;9.00;8.20;;;;;;;;;;5060345;28;20185;-56
2022/05/20 05:07:01;;;;;;;10.93;10.07;;;;;;;;;;5038105;28;20328;-56
2022/05/20 05:09:27;;;;;;;9.57;8.70;;;;;;;;;;5053863;28;20196;-56
2022/05/20 05:11:53;;;;;;;9.83;8.97;;;;;;;;;;5052943;28;20207;-56
2022/05/20 05:14:19;;;;;;;10.83;9.83;;;;;;;;;;5054616;28;20190;-56
2022/05/20 05:16:45;;;;;;;8.83;7.93;;;;;;;;;;5045813;28;20197;-56
2022/05/20 05:19:12;;;;;;;10.80;9.80;;;;;;;;;;5047248;28;20273;-57
2022/05/20 05:21:38;;;;;;;10.07;9.17;;;;;;;;;;5052145;28;20249;-57
2022/05/20 05:24:05;;;;;;;10.20;9.30;;;;;;;;;;5047163;28;20239;-56
2022/05/20 05:26:32;;;;;;;11.07;10.00;;;;;;;;;;5028331;28;20514;-56
2022/05/20 05:28:59;;;;;;;10.87;9.93;;;;;;;;;;5047351;28;20169;-56
2022/05/20 05:31:26;;;;;;;11.10;10.10;;;;;;;;;;5052315;28;20181;-56
2022/05/20 05:33:53;;;;;;;11.03;9.93;;;;;;;;;;5055379;28;20489;-56
2022/05/20 05:36:19;;;;;;;10.10;9.20;;;;;;;;;;5057448;28;20267;-56
2022/05/20 05:38:46;;;;;;;12.57;11.57;;;;;;;;;;5042891;28;20203;-56
2022/05/20 05:41:12;;;;;;;11.80;10.80;;;;;;;;;;5047324;28;20219;-55
2022/05/20 05:43:39;;;;;;;11.90;10.73;;;;;;;;;;5050675;28;20185;-56
2022/05/20 05:46:05;;;;;;;11.03;9.93;;;;;;;;;;5044959;28;20181;-56
2022/05/20 05:48:32;;;;;;;12.57;9.83;;;;;;;;;;5041691;28;20628;-53
2022/05/20 05:50:59;;;;;;;12.90;11.53;;;;;;;;;;5030519;28;20197;-54
2022/05/20 05:53:25;;;;;;;12.13;10.97;;;;;;;;;;5067106;28;20165;-54
2022/05/20 05:55:56;;;;;;;13.00;11.63;;;;;;;;;;5046600;28;20268;-55
2022/05/20 05:58:22;;;;;;;12.33;11.03;;;;;;;;;;5060354;28;20309;-54
2022/05/20 06:00:48;;;;;;;12.67;11.47;;;;;;;;;;5048431;28;20247;-54
2022/05/20 06:03:16;;;;;;;12.80;11.60;;;;;;;;;;5029025;28;20263;-54
2022/05/20 06:05:42;;;;;;;13.80;12.27;;;;;;;;;;5044966;28;20185;-54
2022/05/20 06:08:09;;;;;;;14.07;12.57;;;;;;;;;;5023135;28;20397;-55
2022/05/20 06:10:35;;;;;;;11.87;10.80;;;;;;;;;;5048454;28;20742;-54
2022/05/20 06:13:02;;;;;;;12.67;11.37;;;;;;;;;;5045262;28;20651;-54
2022/05/20 06:15:29;;;;;;;13.93;12.53;;;;;;;;;;5026861;28;20205;-54
2022/05/20 06:17:58;;;;;;;14.97;13.70;;;;;;;;;;5028927;28;20262;-54
2022/05/20 06:20:26;;;;;;;14.27;12.87;;;;;;;;;;5048275;28;20644;-55
2022/05/20 06:22:52;;;;;;;12.87;11.60;;;;;;;;;;5047117;28;20184;-55
2022/05/20 06:25:19;;;;;;;13.47;12.00;;;;;;;;;;5045851;28;20229;-54
2022/05/20 06:27:45;;;;;;;13.90;12.40;;;;;;;;;;5042283;28;20243;-55
2022/05/20 06:30:13;;;;;;;14.97;13.50;;;;;;;;;;5055183;28;20188;-55
2022/05/20 06:32:39;;;;;;;13.57;12.20;;;;;;;;;;5050301;28;20176;-54
2022/05/20 06:40:44;;;;;;;13.50;12.10;;;;;;;;;;5049114;28;20531;-54
2022/05/20 06:43:10;;;;;;;12.67;11.47;;;;;;;;;;5055850;28;20224;-56
2022/05/20 06:45:37;;;;;;;13.17;11.80;;;;;;;;;;5055758;28;20181;-56
2022/05/20 06:48:03;;;;;;;14.20;12.83;;;;;;;;;;5055006;28;20188;-54
2022/05/20 06:50:29;;;;;;;14.10;12.63;;;;;;;;;;5036250;28;20210;-55
2022/05/20 06:52:55;;;;;;;14.30;12.40;;;;;;;;;;5067771;28;20192;-55
2022/05/20 06:55:21;;;;;;;14.73;12.17;;;;;;;;;;5026853;28;20189;-55
2022/05/20 06:57:47;;;;;;;15.93;14.07;;;;;;;;;;5056389;28;20208;-55
2022/05/20 07:00:14;;;;;;;22.33;19.33;;;;;;;;;;5053652;28;20617;-54
2022/05/20 07:02:40;;;;;;;20.97;18.60;;;;;;;;;;5049303;28;20217;-55
2022/05/20 07:05:08;;;;;;;22.57;19.43;;;;;;;;;;5045874;28;20180;-54
2022/05/20 07:07:35;;;;;;;19.30;17.17;;;;;;;;;;5062579;28;20576;-55
2022/05/20 07:10:01;;;;;;;26.10;20.37;;;;;;;;;;5049459;28;20329;-55
2022/05/20 07:12:27;;;;;;;22.10;19.27;;;;;;;;;;5037343;28;20187;-54
2022/05/20 07:14:53;;;;;;;19.53;17.43;;;;;;;;;;5051318;28;20280;-54
2022/05/20 07:17:20;;;;;;;23.53;16.03;;;;;;;;;;5056080;28;20243;-54
2022/05/20 07:19:46;;;;;;;17.73;15.03;;;;;;;;;;5068656;28;20209;-55
2022/05/20 07:22:12;;;;;;;14.70;12.80;;;;;;;;;;5056645;28;20177;-56
2022/05/20 07:24:39;;;;;;;15.47;14.07;;;;;;;;;;5053106;28;20185;-63
2022/05/20 07:27:05;;;;;;;15.37;12.30;;;;;;;;;;5048373;28;20218;-56
2022/05/20 07:29:31;;;;;;;13.13;11.83;;;;;;;;;;5053827;28;20586;-56
2022/05/20 07:31:57;;;;;;;13.07;11.77;;;;;;;;;;5047906;28;20208;-56
2022/05/20 07:34:24;;;;;;;12.70;11.47;;;;;;;;;;5052031;28;20180;-56
2022/05/20 07:36:50;;;;;;;13.50;9.90;;;;;;;;;;5030743;28;20737;-55
2022/05/20 07:39:17;;;;;;;11.83;10.00;;;;;;;;;;5047018;28;20186;-56
2022/05/20 07:41:43;;;;;;;10.67;9.53;;;;;;;;;;5056329;28;20217;-56
2022/05/20 07:44:09;;;;;;;10.37;9.37;;;;;;;;;;5052116;28;20186;-56
2022/05/20 07:46:35;;;;;;;9.90;8.73;;;;;;;;;;5055161;28;20184;-56
2022/05/20 07:49:01;;;;;;;11.63;9.53;;;;;;;;;;5051449;28;20191;-56
2022/05/20 07:51:28;;;;;;;10.10;8.73;;;;;;;;;;5029131;28;20180;-56
2022/05/20 07:53:57;;;;;;;12.67;10.67;;;;;;;;;;5059734;28;20168;-55
2022/05/20 07:56:43;;;;;;;12.63;11.20;;;;;;;;;;5048584;28;20542;-56
2022/05/20 07:59:14;;;;;;;12.33;10.97;;;;;;;;;;5064620;28;20219;-56
2022/05/20 08:01:42;;;;;;;12.93;11.17;;;;;;;;;;5055989;28;20670;-56
2022/05/20 08:07:02;;;;;;;12.90;10.80;;;;;;;;;;5055620;28;20242;-56
2022/05/20 08:09:28;;;;;;;14.97;12.73;;;;;;;;;;5032992;28;20580;-57
2022/05/20 08:11:55;;;;;;;16.40;13.70;;;;;;;;;;5033194;28;20199;-56
2022/05/20 08:14:21;;;;;;;18.17;13.63;;;;;;;;;;5057839;28;20940;-56
2022/05/20 08:16:47;;;;;;;14.80;13.30;;;;;;;;;;5050681;28;20466;-56
2022/05/20 08:19:14;;;;;;;18.50;13.30;;;;;;;;;;5053647;28;20188;-56
2022/05/20 08:21:40;;;;;;;15.60;13.90;;;;;;;;;;5034146;28;20501;-55
2022/05/20 08:24:06;;;;;;;17.63;14.10;;;;;;;;;;5049291;28;20409;-56
2022/05/20 08:26:32;;;;;;;16.73;13.93;;;;;;;;;;5050057;28;20353;-56
2022/05/20 08:28:59;;;;;;;21.07;13.27;;;;;;;;;;5054264;28;20177;-56
2022/05/20 08:31:25;;;;;;;19.63;13.77;;;;;;;;;;5047218;28;20184;-56
2022/05/20 08:33:51;;;;;;;18.40;13.97;;;;;;;;;;5048521;28;20187;-56
2022/05/20 08:36:18;;;;;;;18.10;14.53;;;;;;;;;;5047814;28;20479;-57
2022/05/20 08:38:47;;;;;;;16.20;12.07;;;;;;;;;;5035438;28;20216;-56
2022/05/20 08:41:17;;;;;;;16.33;13.70;;;;;;;;;;5030836;28;20392;-56
2022/05/20 08:43:43;;;;;;;19.97;14.87;;;;;;;;;;5030690;28;20218;-56
2022/05/20 08:46:09;;;;;;;21.07;13.77;;;;;;;;;;5031875;28;20298;-56
2022/05/20 08:48:35;;;;;;;16.57;12.80;;;;;;;;;;5038134;28;20187;-57
2022/05/20 08:51:02;;;;;;;16.67;13.40;;;;;;;;;;5054352;28;20191;-57
2022/05/20 08:53:39;;;;;;;15.97;13.17;;;;;;;;;;5060131;28;20190;-56
2022/05/20 08:56:09;;;;;;;18.87;14.17;;;;;;;;;;5052997;28;20216;-56
2022/05/20 08:58:37;;;;;;;16.30;14.67;;;;;;;;;;5047623;28;20202;-56
2022/05/20 09:01:03;;;;;;;19.80;14.87;;;;;;;;;;5040094;28;20264;-57
2022/05/20 09:03:30;;;;;;;21.27;15.50;;;;;;;;;;5053570;28;20266;-56
2022/05/20 09:06:07;;;;;;;19.67;15.37;;;;;;;;;;5028605;28;20206;-56
2022/05/20 09:08:33;;;;;;;20.47;15.73;;;;;;;;;;5054210;28;20187;-56
2022/05/20 09:11:01;;;;;;;17.83;15.93;;;;;;;;;;5039652;28;20597;-56
2022/05/20 09:16:13;;;;;;;19.87;15.70;;;;;;;;;;5048144;28;20206;-56
2022/05/20 09:18:41;;;;;;;17.53;14.90;;;;;;;;;;5033780;28;20203;-56
2022/05/20 09:21:09;;;;;;;19.57;15.67;;;;;;;;;;5046114;28;20244;-57
2022/05/20 09:23:48;;;;;;;20.27;16.07;;;;;;;;;;5029102;28;20272;-56
2022/05/20 09:26:16;;;;;;;20.30;15.00;;;;;;;;;;5040542;28;20219;-55
2022/05/20 09:28:47;;;;;;;19.23;14.70;;;;;;;;;;5043353;28;20191;-56
2022/05/20 09:31:15;;;;;;;18.97;15.27;;;;;;;;;;5032598;28;20281;-56
2022/05/20 09:33:47;;;;;;;18.63;14.60;;;;;;;;;;5029829;28;20197;-55
2022/05/20 09:36:28;;;;;;;16.87;14.03;;;;;;;;;;5056390;28;20201;-55
2022/05/20 09:39:07;;;;;;;16.33;12.93;;;;;;;;;;5066676;28;20199;-55
2022/05/20 09:41:33;;;;;;;16.03;12.27;;;;;;;;;;5061154;28;20209;-55
2022/05/20 09:44:01;;;;;;;13.07;11.50;;;;;;;;;;5047580;28;20187;-55
2022/05/20 09:46:29;;;;;;;13.60;11.60;;;;;;;;;;5047458;28;20657;-55
2022/05/20 09:49:02;;;;;;;11.07;9.87;;;;;;;;;;5028826;28;20626;-54
2022/05/20 09:51:37;;;;;;;11.40;9.57;;;;;;;;;;5052093;28;20263;-55
2022/05/20 09:54:23;;;;;;;12.83;9.97;;;;;;;;;;5060004;28;20707;-54
2022/05/20 09:57:05;;;;;;;11.80;9.60;;;;;;;;;;5053629;28;20191;-55
2022/05/20 09:59:50;;;;;;;11.20;9.83;;;;;;;;;;5053656;28;20599;-55
2022/05/20 10:02:34;;;;;;;11.77;9.37;;;;;;;;;;5046565;28;20661;-55
2022/05/20 10:05:03;;;;;;;11.70;10.50;;;;;;;;;;5046953;28;20269;-55
2022/05/20 10:07:36;;;;;;;10.60;9.47;;;;;;;;;;5046886;28;20688;-55
2022/05/20 10:10:11;;;;;;;13.73;11.03;;;;;;;;;;5058097;28;20331;-55
2022/05/20 10:12:39;;;;;;;11.07;9.97;;;;;;;;;;5046710;28;20196;-55
2022/05/20 10:15:15;;;;;;;11.00;9.73;;;;;;;;;;5046335;28;20178;-55
2022/05/20 10:17:48;;;;;;;17.23;12.03;;;;;;;;;;5041380;28;20212;-55
2022/05/20 10:20:20;;;;;;;13.10;10.23;;;;;;;;;;5063815;28;20170;-55
2022/05/20 10:22:46;;;;;;;12.93;10.17;;;;;;;;;;5045745;28;20169;-55
2022/05/20 10:25:31;;;;;;;13.17;10.47;;;;;;;;;;5045935;28;20234;-55
2022/05/20 10:28:01;;;;;;;14.03;10.10;;;;;;;;;;5028863;28;20773;-55
2022/05/20 10:33:36;;;;;;;13.33;9.63;;;;;;;;;;5047116;28;20194;-55
2022/05/20 10:36:18;;;;;;;10.13;9.13;;;;;;;;;;5045834;28;20603;-56
2022/05/20 10:38:59;;;;;;;11.03;9.93;;;;;;;;;;5046850;28;20444;-55
2022/05/20 10:41:35;;;;;;;10.97;9.13;;;;;;;;;;5027790;28;20227;-56
2022/05/20 10:50:16;;;;;;;14.70;11.57;;;;;;;;;;5063802;28;20202;-56
2022/05/20 10:52:42;;;;;;;11.50;10.03;;;;;;;;;;5046376;28;20190;-56
2022/05/20 10:55:19;;;;;;;13.30;10.40;;;;;;;;;;5044130;28;20334;-55
2022/05/20 10:57:49;;;;;;;10.77;9.67;;;;;;;;;;5046042;28;20320;-55
2022/05/20 11:00:38;;;;;;;12.03;9.53;;;;;;;;;;5034724;28;20658;-56
2022/05/20 11:03:14;;;;;;;12.10;10.10;;;;;;;;;;5035160;28;20185;-55
2022/05/20 11:06:03;;;;;;;12.87;11.37;;;;;;;;;;5047224;28;20643;-55
2022/05/20 11:08:36;;;;;;;11.43;10.17;;;;;;;;;;5028274;28;20605;-56
2022/05/20 11:11:03;;;;;;;12.97;11.57;;;;;;;;;;5029107;28;20192;-56
2022/05/20 11:13:43;;;;;;;13.83;10.13;;;;;;;;;;5046083;28;20558;-56
2022/05/20 11:16:22;;;;;;;13.30;11.82;;;;;;;;;;5054652;28;20940;-56
2022/05/20 11:19:03;;;;;;;12.13;10.83;;;;;;;;;;5051230;28;21202;-56
2022/05/20 11:21:45;;;;;;;13.27;11.93;;;;;;;;;;5043613;28;20784;-56
2022/05/20 11:24:18;;;;;;;12.63;11.43;;;;;;;;;;5029727;28;20566;-56
2022/05/20 11:27:02;;;;;;;10.67;9.67;;;;;;;;;;5036880;28;20256;-56
2022/05/20 11:29:37;;;;;;;10.73;9.67;;;;;;;;;;5053947;28;20197;-56
2022/05/20 11:32:08;;;;;;;10.63;9.67;;;;;;;;;;5046901;28;20184;-56
2022/05/20 11:34:35;;;;;;;11.20;9.77;;;;;;;;;;5050812;28;20189;-56
2022/05/20 11:37:02;;;;;;;13.37;11.00;;;;;;;;;;5059485;28;20655;-56
2022/05/20 11:39:40;;;;;;;11.90;10.80;;;;;;;;;;5065784;28;20157;-56
2022/05/20 11:42:14;;;;;;;10.77;9.77;;;;;;;;;;5046600;28;20288;-56
2022/05/20 11:44:49;;;;;;;10.60;9.67;;;;;;;;;;5051682;28;20174;-56
2022/05/20 11:47:37;;;;;;;11.20;10.20;;;;;;;;;;5031638;28;20217;-57
2022/05/20 11:50:13;;;;;;;10.70;9.60;;;;;;;;;;5031504;28;20264;-56
2022/05/20 11:52:39;;;;;;;11.00;9.73;;;;;;;;;;5049948;28;20812;-56
2022/05/20 11:55:13;;;;;;;10.27;9.37;;;;;;;;;;5037587;28;20176;-57
2022/05/20 11:57:43;;;;;;;12.50;11.50;;;;;;;;;;5033765;28;20638;-56
2022/05/20 12:00:13;;;;;;;10.37;9.37;;;;;;;;;;5056323;28;20275;-56
2022/05/20 12:02:47;;;;;;;9.50;8.60;;;;;;;;;;5057992;28;20193;-56
2022/05/20 12:05:14;;;;;;;10.67;9.67;;;;;;;;;;5047682;28;20522;-56
2022/05/20 12:07:42;;;;;;;9.90;8.43;;;;;;;;;;5052958;28;20551;-56
2022/05/20 12:10:27;;;;;;;10.30;9.03;;;;;;;;;;5040631;28;20184;-56
2022/05/20 12:13:14;;;;;;;10.27;9.57;;;;;;;;;;5050778;28;20710;-56
2022/05/20 12:15:41;;;;;;;9.93;9.13;;;;;;;;;;5048453;28;20700;-56
2022/05/20 12:24:11;;;;;;;10.10;9.30;;;;;;;;;;5031494;28;20376;-56
2022/05/20 12:24:21;;;;;;;8.80;8.10;;;;;;;;;;5051681;28;20204;-56
2022/05/20 12:26:52;;;;;;;9.33;8.53;;;;;;;;;;5047186;28;20217;-56
2022/05/20 12:29:39;;;;;;;9.90;9.10;;;;;;;;;;5054295;28;20175;-56
2022/05/20 12:32:17;;;;;;;9.30;8.60;;;;;;;;;;5051363;28;20209;-56
2022/05/20 12:34:54;;;;;;;10.00;9.23;;;;;;;;;;5050576;28;20182;-56
2022/05/20 12:37:39;;;;;;;8.40;7.80;;;;;;;;;;5053009;28;20660;-56
2022/05/20 12:40:06;;;;;;;11.17;8.20;;;;;;;;;;5031530;28;20209;-59
2022/05/20 12:42:45;;;;;;;8.67;7.73;;;;;;;;;;5053300;28;20245;-56
2022/05/20 12:45:11;;;;;;;8.33;7.63;;;;;;;;;;5054516;28;20637;-56
2022/05/20 12:47:38;;;;;;;9.40;8.70;;;;;;;;;;5060099;28;20232;-56
2022/05/20 12:50:09;;;;;;;8.57;7.87;;;;;;;;;;5038302;28;20199;-56
2022/05/20 12:52:45;;;;;;;7.63;6.93;;;;;;;;;;5048722;28;20226;-56
2022/05/20 12:55:33;;;;;;;8.33;7.73;;;;;;;;;;5048453;28;20186;-57
2022/05/20 12:58:02;;;;;;;8.70;8.00;;;;;;;;;;5062200;28;20465;-57
2022/05/20 13:00:37;;;;;;;7.40;6.80;;;;;;;;;;5063122;28;20650;-57
2022/05/20 13:03:24;;;;;;;7.03;6.40;;;;;;;;;;5055483;28;20594;-58
2022/05/20 13:05:58;;;;;;;7.90;7.23;;;;;;;;;;5061748;28;20173;-58
2022/05/20 13:08:45;;;;;;;7.27;6.70;;;;;;;;;;5053010;28;20195;-59
2022/05/20 13:11:12;;;;;;;7.43;6.83;;;;;;;;;;5036096;28;20199;-60
2022/05/20 13:13:39;;;;;;;7.03;6.53;;;;;;;;;;5056841;28;20191;-62
2022/05/20 13:16:10;;;;;;;7.77;6.83;;;;;;;;;;5061622;28;20170;-62
2022/05/20 13:18:42;;;;;;;7.83;7.13;;;;;;;;;;5051916;28;20242;-62
2022/05/20 13:21:15;;;;;;;7.40;6.77;;;;;;;;;;5033122;28;20584;-61
2022/05/20 13:23:43;;;;;;;7.80;7.17;;;;;;;;;;5028397;28;20493;-61
2022/05/20 13:26:18;;;;;;;7.63;6.93;;;;;;;;;;5054021;28;20226;-62
2022/05/20 13:28:44;;;;;;;9.10;7.60;;;;;;;;;;5051489;28;20189;-61
2022/05/20 13:31:11;;;;;;;10.67;7.97;;;;;;;;;;5047643;28;20227;-61
2022/05/20 13:33:39;;;;;;;9.53;7.43;;;;;;;;;;5061176;28;20190;-61
2022/05/20 13:36:06;;;;;;;8.20;7.50;;;;;;;;;;5059400;28;20165;-60
2022/05/20 13:38:34;;;;;;;9.63;8.10;;;;;;;;;;5054389;28;20235;-61
2022/05/20 13:41:00;;;;;;;8.83;7.93;;;;;;;;;;5039452;28;20266;-60
2022/05/20 13:43:28;;;;;;;6.50;5.90;;;;;;;;;;5045337;28;20552;-59
2022/05/20 13:51:34;;;;;;;6.40;5.77;;;;;;;;;;5050769;28;20274;-59
2022/05/20 13:54:03;;;;;;;6.30;5.33;;;;;;;;;;5034963;28;20217;-59
2022/05/20 13:56:32;;;;;;;5.63;5.13;;;;;;;;;;5050005;28;20190;-59
2022/05/20 13:59:00;;;;;;;6.07;5.10;;;;;;;;;;5020681;28;20182;-59
2022/05/20 14:01:26;;;;;;;7.73;5.63;;;;;;;;;;5049190;28;20687;-59
2022/05/20 14:03:52;;;;;;;5.80;5.30;;;;;;;;;;5036637;28;20188;-59
2022/05/20 14:06:20;;;;;;;6.03;5.43;;;;;;;;;;5049936;28;20246;-59
2022/05/20 14:08:52;;;;;;;5.57;5.07;;;;;;;;;;5055786;28;20231;-59
2022/05/20 14:11:19;;;;;;;4.80;4.30;;;;;;;;;;5033386;28;20629;-59
2022/05/20 14:13:46;;;;;;;5.03;4.57;;;;;;;;;;5033188;28;20178;-58
2022/05/20 14:16:25;;;;;;;4.87;4.40;;;;;;;;;;5031284;28;20505;-58
2022/05/20 14:18:57;;;;;;;4.87;4.40;;;;;;;;;;5044964;28;20225;-59
2022/05/20 14:21:33;;;;;;;6.27;5.83;;;;;;;;;;5028266;28;20556;-60
2022/05/20 14:24:02;;;;;;;4.50;4.07;;;;;;;;;;5047943;28;20655;-58
2022/05/20 14:26:33;;;;;;;4.53;4.13;;;;;;;;;;5031425;28;20213;-59
2022/05/20 14:28:59;;;;;;;3.73;3.47;;;;;;;;;;5034904;28;20324;-59
2022/05/20 14:31:32;;;;;;;4.37;4.03;;;;;;;;;;5036016;28;20204;-59
2022/05/20 14:34:08;;;;;;;4.50;4.10;;;;;;;;;;5049035;28;20188;-59
2022/05/20 14:36:36;;;;;;;3.90;3.60;;;;;;;;;;5038327;28;20183;-59
2022/05/20 14:39:03;;;;;;;5.90;4.20;;;;;;;;;;5048998;28;20288;-59
2022/05/20 14:41:30;;;;;;;4.13;3.73;;;;;;;;;;5038248;28;20196;-59
2022/05/20 14:43:58;;;;;;;4.63;4.23;;;;;;;;;;5049274;28;20295;-59
2022/05/20 14:49:23;;;;;;;4.00;3.50;;;;;;;;;;5052424;28;20184;-58
2022/05/20 14:51:55;;;;;;;3.70;3.23;;;;;;;;;;5050413;28;20176;-59
2022/05/20 14:54:22;;;;;;;3.60;3.30;;;;;;;;;;5032499;28;20177;-59
2022/05/20 14:56:50;;;;;;;3.67;3.40;;;;;;;;;;5030221;28;20176;-59
2022/05/20 14:59:29;;;;;;;4.17;3.70;;;;;;;;;;5055828;28;20169;-59
2022/05/20 15:01:56;;;;;;;4.13;3.73;;;;;;;;;;5053466;28;20249;-59
2022/05/20 15:04:25;;;;;;;3.77;3.23;;;;;;;;;;5050318;28;20180;-59
2022/05/20 15:06:54;;;;;;;3.50;3.20;;;;;;;;;;5030050;28;20636;-59
2022/05/20 15:09:22;;;;;;;3.97;3.70;;;;;;;;;;5055053;28;20181;-58
2022/05/20 15:11:49;;;;;;;4.20;3.60;;;;;;;;;;5034003;28;20319;-56
2022/05/20 15:14:16;;;;;;;3.83;3.33;;;;;;;;;;5052347;28;20551;-57
2022/05/20 15:16:42;;;;;;;2.93;2.73;;;;;;;;;;5034934;28;20534;-58
2022/05/20 15:19:08;;;;;;;4.13;3.30;;;;;;;;;;5050709;28;20276;-58
2022/05/20 15:21:36;;;;;;;4.60;3.50;;;;;;;;;;5058059;28;20691;-58
2022/05/20 15:24:04;;;;;;;3.40;3.17;;;;;;;;;;5055721;28;20252;-58
2022/05/20 15:26:32;;;;;;;3.57;2.53;;;;;;;;;;5058350;28;20228;-58
2022/05/20 15:28:58;;;;;;;3.00;2.77;;;;;;;;;;5060749;28;20729;-58
2022/05/20 15:36:59;;;;;;;2.83;2.63;;;;;;;;;;5062477;28;20195;-60
2022/05/20 15:39:26;;;;;;;2.70;2.50;;;;;;;;;;5055054;28;20263;-59